Terminal Aerodrome Forecast
Issued by NWS Corpus Christi, TX

Current Version | Previous Version | Text Only | Print | Product List | Glossary Off
Versions: 1 2 3 4 5 6 7 8 9 10 11 12 13 14 15 16 17 18

050
FTUS44 KCRP 040520
TAFVCT
TAF
KVCT 040520Z 0406/0506 01011KT 6SM -RA BR BKN005 OVC120
     FM041800 01012KT 5SM -RA BR OVC007=

USA.gov is the U.S. government's official web portal to all federal, state and local government web resources and services.